Hangzhou Xiaoshan International Airport
ZSHC : now visible

Airfield :











YOU CAN JOIN US ON...

 
LOGIN :

Register | Disclaimer

   EN    FR    IT 

 









Legend :    VFR   Marginal VFR   IFR   Intensive IFR   Very Intensive IFR
Visi :
Ceiling :
>= 8 km
>= 3000ft
5 to 8 km
1000 to 3000 ft
1500m to 5 km
500 to 1000 ft
800 to 1500m
200 to 500 ft
< 800m
< 200 ft
Symbols :   Thunderstorms  Fog  Heavy snow  Heavy precipitations  Wind > 20 kt







- Airport Elevation : 23 ft
- IATA code : HGH


ZSHC - Hangzhou Xiaoshan International

CURRENT METAR :
  • 241700Z 14004MPS CAVOK 25/14 Q1009 NOSIG

EXPIRED METARs :
  • 241630Z 15004MPS 120V180 CAVOK 25/14 Q1009 NOSIG
  • 241600Z 15003MPS 110V170 CAVOK 25/14 Q1009 NOSIG
  • 241530Z 17002MPS 150V210 CAVOK 26/13 Q1010 NOSIG
  • 241500Z 17003MPS 140V210 CAVOK 26/13 Q1010 NOSIG
  • 241430Z 15003MPS 120V190 CAVOK 27/13 Q1009 NOSIG
  • 241400Z 16005MPS CAVOK 27/13 Q1009 NOSIG

TAF TAF ZSHC
Valid from the 24 at 12:00 until the 25 at 12:00 UTC


240913Z 2412/2512 18003MPS 6000 NSC TX31/2506Z TN20/2421Z
ZSHA FIR / Asia



MET'MAP, your aeronautical weather chart ! - Copyright ORBIFLY December 2007 - Disclaimer

ORBIFLY MET'MAP TEAM :

Programming & Development : Alexandra Zaïnal
Concept & Development : Baudouin d'Aumeries
Co-Development & Prog : Marc-Olivier Méhu
Technical & hardware support : Manuel Goepfert

Contact : metmap@orbifly.com




SOURCES & CREDITS :

   NOAA       Earth
Advisory